createdAt,value
2018-06-17T00:00:30.846Z,22.47
2018-06-17T00:01:11.414Z,22.39
2018-06-17T00:01:51.971Z,22.47
2018-06-17T00:02:32.542Z,22.39
2018-06-17T00:03:13.127Z,22.5
2018-06-17T00:03:53.665Z,22.48
2018-06-17T00:04:34.256Z,22.36
2018-06-17T00:05:14.807Z,22.35
2018-06-17T00:05:55.363Z,22.41
2018-06-17T00:06:35.917Z,22.38
2018-06-17T00:07:16.488Z,22.36
2018-06-17T00:07:57.030Z,22.26
2018-06-17T00:08:37.571Z,22.35
2018-06-17T00:09:18.147Z,22.32
2018-06-17T00:09:58.704Z,22.39
2018-06-17T00:10:39.311Z,22.35
2018-06-17T00:11:19.876Z,22.28
2018-06-17T00:12:00.427Z,22.26
2018-06-17T00:12:41.008Z,22.32
2018-06-17T00:13:21.552Z,22.38
2018-06-17T00:14:02.115Z,22.35
2018-06-17T00:14:42.714Z,22.28
2018-06-17T00:15:23.273Z,22.23
2018-06-17T00:16:03.827Z,22.26
2018-06-17T00:16:44.420Z,22.2
2018-06-17T00:17:24.958Z,22.29
2018-06-17T00:18:05.522Z,22.35
2018-06-17T00:18:46.086Z,22.35
2018-06-17T00:19:26.666Z,22.3
2018-06-17T00:20:07.253Z,22.23
2018-06-17T00:20:47.782Z,22.3
2018-06-17T00:21:28.337Z,22.18
2018-06-17T00:22:08.912Z,22.3
2018-06-17T00:22:49.514Z,22.26
2018-06-17T00:23:30.095Z,22.26
2018-06-17T00:24:10.668Z,22.14
2018-06-17T00:24:51.217Z,22.18
2018-06-17T00:25:31.832Z,22.14
2018-06-17T00:26:12.421Z,22.17
2018-06-17T00:26:52.981Z,22.15
2018-06-17T00:27:33.573Z,22.15
2018-06-17T00:28:14.147Z,22.14
2018-06-17T00:28:55.318Z,22.22
2018-06-17T00:29:35.878Z,22.15
2018-06-17T00:30:16.500Z,22.13
2018-06-17T00:30:57.062Z,22.04
2018-06-17T00:31:37.631Z,22.02
2018-06-17T00:32:18.186Z,21.98
2018-06-17T00:32:58.742Z,22.02
2018-06-17T00:33:39.301Z,22.07
2018-06-17T00:34:19.880Z,22.17
2018-06-17T00:35:00.747Z,22.06
2018-06-17T00:35:41.331Z,22.04
2018-06-17T00:36:21.899Z,22.06
2018-06-17T00:37:02.456Z,22.06
2018-06-17T00:37:43.027Z,22.07
2018-06-17T00:38:23.569Z,22.06
2018-06-17T00:39:04.141Z,21.99
2018-06-17T00:39:44.691Z,21.99
2018-06-17T00:40:25.244Z,22
2018-06-17T00:41:05.814Z,21.88
2018-06-17T00:41:46.393Z,21.95
2018-06-17T00:42:26.940Z,21.92
2018-06-17T00:43:07.525Z,21.99
2018-06-17T00:43:48.092Z,21.95
2018-06-17T00:44:28.694Z,21.85
2018-06-17T00:45:09.253Z,21.91
2018-06-17T00:45:49.828Z,21.93
2018-06-17T00:46:30.394Z,21.85
2018-06-17T00:47:11.140Z,21.93
2018-06-17T00:47:51.668Z,21.91
2018-06-17T00:48:32.236Z,21.93
2018-06-17T00:49:12.812Z,21.95
2018-06-17T00:49:53.375Z,21.96
2018-06-17T00:50:33.939Z,21.83
2018-06-17T00:51:14.529Z,21.89
2018-06-17T00:51:55.089Z,21.85
2018-06-17T00:52:35.883Z,21.93
2018-06-17T00:53:16.449Z,21.82
2018-06-17T00:53:57.033Z,21.82
2018-06-17T00:54:37.597Z,21.85
2018-06-17T00:55:18.165Z,21.79
2018-06-17T00:55:58.727Z,21.77
2018-06-17T00:56:39.307Z,21.85
2018-06-17T00:57:19.857Z,21.77
2018-06-17T00:58:00.412Z,21.77
2018-06-17T00:58:41.450Z,21.82
2018-06-17T00:59:22.036Z,21.8
2018-06-17T01:00:02.980Z,21.76
2018-06-17T01:00:43.624Z,21.76
2018-06-17T01:01:24.193Z,21.83
2018-06-17T01:02:05.854Z,21.8
2018-06-17T01:02:46.499Z,21.79
2018-06-17T01:04:45.916Z,21.85
2018-06-17T01:05:26.481Z,21.75
2018-06-17T01:06:07.039Z,21.73
2018-06-17T01:06:47.608Z,21.79
2018-06-17T01:07:28.390Z,21.67
2018-06-17T01:08:08.999Z,21.79
2018-06-17T01:08:51.006Z,21.75
2018-06-17T01:09:31.800Z,21.79
2018-06-17T01:10:12.359Z,21.75
2018-06-17T01:10:52.924Z,21.72
2018-06-17T01:11:33.668Z,21.69
2018-06-17T01:12:15.399Z,21.72
2018-06-17T01:12:56.044Z,21.6
2018-06-17T01:13:36.552Z,21.67
2018-06-17T01:14:18.082Z,21.58
2018-06-17T01:14:58.632Z,21.6
2018-06-17T01:15:39.730Z,21.66
2018-06-17T01:16:20.311Z,21.69
2018-06-17T01:17:00.981Z,21.61
2018-06-17T01:17:41.642Z,21.66
2018-06-17T01:18:22.333Z,21.66
2018-06-17T01:19:03.074Z,21.67
2018-06-17T01:19:43.666Z,21.66
2018-06-17T01:20:24.334Z,21.62
2018-06-17T01:21:04.978Z,21.52
2018-06-17T01:21:45.544Z,21.6
2018-06-17T01:22:26.132Z,21.6
2018-06-17T01:23:06.701Z,21.52
2018-06-17T01:23:47.326Z,21.58
2018-06-17T01:24:27.888Z,21.5
2018-06-17T01:25:08.449Z,21.51
2018-06-17T01:25:49.016Z,21.46
2018-06-17T01:26:29.565Z,21.42
2018-06-17T01:27:10.127Z,21.5
2018-06-17T01:27:50.690Z,21.5
2018-06-17T01:28:31.266Z,21.5
2018-06-17T01:29:11.855Z,21.46
2018-06-17T01:29:52.419Z,21.39
2018-06-17T01:30:32.980Z,21.5
2018-06-17T01:31:13.533Z,21.43
2018-06-17T01:31:54.094Z,21.42
2018-06-17T01:32:34.662Z,21.5
2018-06-17T01:33:15.243Z,21.35
2018-06-17T01:33:55.802Z,21.45
2018-06-17T01:34:36.378Z,21.39
2018-06-17T01:35:16.927Z,21.35
2018-06-17T01:35:57.488Z,21.39
2018-06-17T01:36:38.040Z,21.35
2018-06-17T01:37:18.612Z,21.4
2018-06-17T01:37:59.165Z,21.43
2018-06-17T01:38:39.739Z,21.46
2018-06-17T01:39:20.300Z,21.39
2018-06-17T01:40:00.948Z,21.39
2018-06-17T01:40:41.497Z,21.39
2018-06-17T01:41:22.048Z,21.42
2018-06-17T01:42:02.626Z,21.42
2018-06-17T01:42:43.197Z,21.39
2018-06-17T01:43:23.775Z,21.39
2018-06-17T01:44:04.325Z,21.36
2018-06-17T01:44:44.895Z,21.33
2018-06-17T01:45:25.457Z,21.42
2018-06-17T01:46:06.012Z,21.4
2018-06-17T01:46:46.575Z,21.35
2018-06-17T01:47:27.107Z,21.32
2018-06-17T01:48:07.660Z,21.35
2018-06-17T01:48:48.220Z,21.35
2018-06-17T01:49:28.763Z,21.39
2018-06-17T01:50:09.315Z,21.33
2018-06-17T01:50:49.901Z,21.35
2018-06-17T01:51:30.469Z,21.33
2018-06-17T01:52:11.016Z,21.29
2018-06-17T01:52:51.599Z,21.37
2018-06-17T01:53:32.161Z,21.33
2018-06-17T01:54:12.713Z,21.32
2018-06-17T01:54:53.285Z,21.35
2018-06-17T01:55:33.877Z,21.24
2018-06-17T01:56:14.435Z,21.22
2018-06-17T01:56:54.998Z,21.29
2018-06-17T01:57:35.566Z,21.33
2018-06-17T01:58:16.122Z,21.3
2018-06-17T01:58:57.013Z,21.24
2018-06-17T01:59:37.577Z,21.29
2018-06-17T02:00:18.126Z,21.3
2018-06-17T02:00:58.785Z,21.3
2018-06-17T02:01:39.347Z,21.25
2018-06-17T02:02:19.889Z,21.3
2018-06-17T02:03:00.455Z,21.25
2018-06-17T02:03:41.017Z,21.25
2018-06-17T02:04:21.592Z,21.18
2018-06-17T02:05:02.153Z,21.17
2018-06-17T02:05:42.721Z,21.21
2018-06-17T02:06:23.274Z,21.21
2018-06-17T02:07:03.834Z,21.24
2018-06-17T02:07:44.395Z,21.18
2018-06-17T02:08:24.949Z,21.24
2018-06-17T02:09:05.502Z,21.17
2018-06-17T02:09:46.838Z,21.17
2018-06-17T02:10:27.399Z,21.17
2018-06-17T02:11:07.986Z,21.2
2018-06-17T02:11:48.554Z,21.18
2018-06-17T02:12:29.157Z,21.15
2018-06-17T02:13:09.718Z,21.15
2018-06-17T02:13:50.277Z,21.17
2018-06-17T02:14:30.841Z,21.15
2018-06-17T02:15:11.408Z,21.22
2018-06-17T02:15:51.981Z,21.21
2018-06-17T02:16:32.557Z,21.15
2018-06-17T02:17:13.090Z,21.09
2018-06-17T02:17:53.643Z,21.11
2018-06-17T02:18:34.206Z,21.07
2018-06-17T02:19:14.776Z,21.14
2018-06-17T02:19:55.335Z,21.17
2018-06-17T02:20:35.885Z,21.07
2018-06-17T02:21:16.470Z,21.15
2018-06-17T02:21:57.025Z,21.07
2018-06-17T02:22:37.585Z,21.07
2018-06-17T02:23:18.151Z,21.09
2018-06-17T02:23:58.742Z,21.17
2018-06-17T02:24:39.300Z,21.15
2018-06-17T02:25:19.878Z,21.09
2018-06-17T02:26:00.422Z,21.15
2018-06-17T02:26:40.983Z,21.15
2018-06-17T02:27:21.540Z,21.15
2018-06-17T02:28:02.100Z,21.07
2018-06-17T02:28:42.652Z,21.14
2018-06-17T02:29:23.233Z,21.14
2018-06-17T02:30:03.778Z,21.07
2018-06-17T02:30:44.355Z,21.11
2018-06-17T02:31:24.927Z,21.09
2018-06-17T02:32:05.482Z,21.03
2018-06-17T02:32:46.036Z,20.99
2018-06-17T02:33:26.604Z,21.09
2018-06-17T02:34:07.211Z,21.06
2018-06-17T02:34:47.760Z,21.07
2018-06-17T02:35:28.345Z,21.05
2018-06-17T02:36:08.928Z,21.02
2018-06-17T02:36:49.491Z,21.03
2018-06-17T02:37:30.035Z,21.11
2018-06-17T02:38:10.593Z,21.07
2018-06-17T02:38:51.162Z,21.11
2018-06-17T02:39:31.719Z,21.07
2018-06-17T02:40:12.296Z,21.02
2018-06-17T02:40:52.842Z,21.05
2018-06-17T02:41:33.398Z,20.97
2018-06-17T02:42:13.995Z,21.07
2018-06-17T02:42:54.548Z,20.97
2018-06-17T02:43:35.109Z,20.99
2018-06-17T02:44:15.747Z,20.84
2018-06-17T02:44:56.349Z,20.92
2018-06-17T02:45:36.879Z,20.95
2018-06-17T02:46:17.540Z,20.87
2018-06-17T02:46:58.103Z,20.97
2018-06-17T02:47:38.661Z,20.96
2018-06-17T02:48:19.229Z,20.92
2018-06-17T02:48:59.794Z,20.88
2018-06-17T02:49:40.367Z,20.81
2018-06-17T02:50:20.938Z,20.88
2018-06-17T02:51:01.497Z,20.81
2018-06-17T02:51:42.098Z,20.84
2018-06-17T02:52:22.655Z,20.87
2018-06-17T02:53:03.426Z,20.82
2018-06-17T02:53:44.021Z,20.87
2018-06-17T02:54:24.603Z,20.82
2018-06-17T02:55:05.176Z,20.81
2018-06-17T02:55:45.743Z,20.8
2018-06-17T02:56:26.300Z,20.8
2018-06-17T02:57:06.863Z,20.8
2018-06-17T02:57:47.429Z,20.81
2018-06-17T02:58:28.006Z,20.77
2018-06-17T02:59:08.580Z,20.85
2018-06-17T02:59:49.168Z,20.78
2018-06-17T03:00:30.041Z,20.78
2018-06-17T03:01:10.616Z,20.81
2018-06-17T03:01:51.182Z,20.8
2018-06-17T03:02:31.754Z,20.8
2018-06-17T03:03:12.307Z,20.8
2018-06-17T03:03:52.918Z,20.75
2018-06-17T03:04:33.433Z,20.75
2018-06-17T03:05:13.984Z,20.81
2018-06-17T03:05:54.541Z,20.74
2018-06-17T03:06:35.095Z,20.75
2018-06-17T03:07:15.655Z,20.75
2018-06-17T03:07:56.227Z,20.77
2018-06-17T03:08:36.787Z,20.69
2018-06-17T03:09:17.334Z,20.7
2018-06-17T03:09:57.890Z,20.7
2018-06-17T03:10:38.477Z,20.69
2018-06-17T03:11:19.040Z,20.69
2018-06-17T03:11:59.600Z,20.66
2018-06-17T03:12:40.156Z,20.65
2018-06-17T03:13:20.720Z,20.66
2018-06-17T03:14:01.264Z,20.65
2018-06-17T03:14:41.818Z,20.69
2018-06-17T03:15:22.380Z,20.66
2018-06-17T03:16:02.985Z,20.66
2018-06-17T03:16:43.562Z,20.6
2018-06-17T03:17:24.128Z,20.62
2018-06-17T03:18:04.697Z,20.65
2018-06-17T03:18:45.269Z,20.65
2018-06-17T03:19:25.832Z,20.63
2018-06-17T03:20:06.382Z,20.66
2018-06-17T03:20:46.944Z,20.59
2018-06-17T03:21:27.560Z,20.6
2018-06-17T03:22:08.121Z,20.72
2018-06-17T03:22:48.672Z,20.69
2018-06-17T03:23:29.241Z,20.6
2018-06-17T03:24:09.849Z,20.6
2018-06-17T03:24:50.428Z,20.63
2018-06-17T03:25:30.969Z,20.59
2018-06-17T03:26:11.577Z,20.66
2018-06-17T03:26:52.084Z,20.63
2018-06-17T03:27:32.614Z,20.62
2018-06-17T03:28:13.172Z,20.65
2018-06-17T03:28:53.725Z,20.66
2018-06-17T03:29:34.286Z,20.6
2018-06-17T03:30:14.860Z,20.59
2018-06-17T03:30:55.405Z,20.59
2018-06-17T03:31:36.016Z,20.56
2018-06-17T03:32:16.581Z,20.55
2018-06-17T03:32:57.132Z,20.63
2018-06-17T03:33:37.688Z,20.55
2018-06-17T03:34:18.242Z,20.59
2018-06-17T03:34:58.800Z,20.6
2018-06-17T03:35:39.382Z,20.56
2018-06-17T03:36:19.953Z,20.66
2018-06-17T03:37:00.557Z,20.63
2018-06-17T03:37:41.103Z,20.59
2018-06-17T03:38:21.656Z,20.58
2018-06-17T03:39:02.217Z,20.59
2018-06-17T03:39:42.773Z,20.62
2018-06-17T03:40:23.337Z,20.6
2018-06-17T03:41:03.907Z,20.63
2018-06-17T03:41:44.480Z,20.62
2018-06-17T03:42:25.039Z,20.62
2018-06-17T03:43:05.585Z,20.56
2018-06-17T03:43:46.145Z,20.66
2018-06-17T03:44:26.713Z,20.67
2018-06-17T03:45:07.277Z,20.59
2018-06-17T03:45:47.898Z,20.63
2018-06-17T03:46:28.456Z,20.67
2018-06-17T03:47:09.018Z,20.62
2018-06-17T03:47:49.606Z,20.62
2018-06-17T03:48:30.186Z,20.62
2018-06-17T03:49:10.818Z,20.63
2018-06-17T03:49:51.374Z,20.63
2018-06-17T03:50:31.953Z,20.6
2018-06-17T03:51:12.521Z,20.67
2018-06-17T03:51:53.097Z,20.58
2018-06-17T03:52:33.647Z,20.65
2018-06-17T03:53:14.199Z,20.7
2018-06-17T03:53:54.779Z,20.6
2018-06-17T03:54:35.352Z,20.69
2018-06-17T03:55:15.908Z,20.66
2018-06-17T03:55:56.478Z,20.63
2018-06-17T03:56:37.038Z,20.62
2018-06-17T03:57:17.660Z,20.63
2018-06-17T03:57:58.217Z,20.6
2018-06-17T03:58:38.776Z,20.66
2018-06-17T03:59:19.319Z,20.6
2018-06-17T03:59:59.870Z,20.58
2018-06-17T04:00:40.452Z,20.67
2018-06-17T04:01:21.009Z,20.66
2018-06-17T04:02:01.562Z,20.63
2018-06-17T04:02:42.126Z,20.65
2018-06-17T04:03:22.689Z,20.63
2018-06-17T04:04:03.296Z,20.66
2018-06-17T04:04:43.819Z,20.67
2018-06-17T04:05:24.385Z,20.72
2018-06-17T04:06:04.963Z,20.65
2018-06-17T04:06:45.533Z,20.63
2018-06-17T04:07:26.148Z,20.67
2018-06-17T04:08:06.710Z,20.67
2018-06-17T04:08:47.282Z,20.66
2018-06-17T04:09:27.855Z,20.65
2018-06-17T04:10:08.422Z,20.67
2018-06-17T04:10:48.981Z,20.65
2018-06-17T04:11:29.572Z,20.63
2018-06-17T04:12:10.152Z,20.62
2018-06-17T04:12:50.723Z,20.63
2018-06-17T04:13:31.287Z,20.66
2018-06-17T04:14:11.895Z,20.65
2018-06-17T04:14:52.438Z,20.66
2018-06-17T04:15:32.997Z,20.69
2018-06-17T04:16:13.560Z,20.67
2018-06-17T04:16:54.118Z,20.7
2018-06-17T04:17:34.772Z,20.66
2018-06-17T04:18:15.303Z,20.74
2018-06-17T04:18:55.869Z,20.77
2018-06-17T04:19:36.417Z,20.7
2018-06-17T04:20:16.982Z,20.63
2018-06-17T04:20:58.191Z,20.74
2018-06-17T04:21:38.755Z,20.77
2018-06-17T04:22:19.303Z,20.78
2018-06-17T04:22:59.886Z,20.67
2018-06-17T04:23:40.450Z,20.7
2018-06-17T04:24:21.008Z,20.74
2018-06-17T04:25:01.614Z,20.77
2018-06-17T04:25:42.183Z,20.77
2018-06-17T04:26:22.709Z,20.82
2018-06-17T04:27:03.308Z,20.8
2018-06-17T04:27:43.854Z,20.81
2018-06-17T04:28:24.435Z,20.81
2018-06-17T04:29:04.981Z,20.77
2018-06-17T04:29:45.533Z,20.78
2018-06-17T04:30:26.087Z,20.81
2018-06-17T04:31:06.721Z,20.75
2018-06-17T04:31:47.274Z,20.78
2018-06-17T04:32:27.837Z,20.78
2018-06-17T04:33:08.393Z,20.78
2018-06-17T04:33:48.947Z,20.81
2018-06-17T04:34:29.519Z,20.84
2018-06-17T04:35:10.091Z,20.84
2018-06-17T04:35:50.677Z,20.87
2018-06-17T04:36:31.269Z,20.87
2018-06-17T04:37:11.844Z,20.84
2018-06-17T04:37:52.408Z,20.88
2018-06-17T04:38:33.000Z,20.93
2018-06-17T04:39:13.566Z,20.92
2018-06-17T04:39:54.106Z,20.88
2018-06-17T04:40:34.680Z,20.9
2018-06-17T04:41:15.280Z,20.88
2018-06-17T04:41:55.838Z,20.82
2018-06-17T04:42:36.380Z,20.85
2018-06-17T04:43:16.935Z,20.95
2018-06-17T04:43:57.499Z,20.97
2018-06-17T04:44:38.040Z,20.85
2018-06-17T04:45:18.611Z,21
2018-06-17T04:45:59.182Z,20.92
2018-06-17T04:46:39.752Z,20.96
2018-06-17T04:47:20.329Z,20.96
2018-06-17T04:48:00.886Z,20.96
2018-06-17T04:48:41.456Z,20.92
2018-06-17T04:49:22.020Z,20.93
2018-06-17T04:50:02.593Z,20.99
2018-06-17T04:50:43.176Z,20.97
2018-06-17T04:51:23.818Z,20.97
2018-06-17T04:52:04.388Z,21.07
2018-06-17T04:52:44.935Z,21.03
2018-06-17T04:53:25.496Z,20.99
2018-06-17T04:54:06.059Z,21.03
2018-06-17T04:54:46.615Z,21.07
2018-06-17T04:55:27.173Z,21.02
2018-06-17T04:56:07.763Z,21.05
2018-06-17T04:56:48.330Z,21.14
2018-06-17T04:57:28.894Z,21.07
2018-06-17T04:58:09.443Z,21.12
2018-06-17T04:58:50.015Z,21.09
2018-06-17T04:59:30.634Z,21.12
2018-06-17T05:00:11.173Z,21.18
2018-06-17T05:00:51.732Z,21.21
2018-06-17T05:01:32.280Z,21.25
2018-06-17T05:02:12.867Z,21.24
2018-06-17T05:02:53.423Z,21.35
2018-06-17T05:03:33.999Z,21.35
2018-06-17T05:04:14.568Z,21.3
2018-06-17T05:04:55.146Z,21.42
2018-06-17T05:05:35.702Z,21.36
2018-06-17T05:06:16.268Z,21.4
2018-06-17T05:06:56.845Z,21.45
2018-06-17T05:07:37.407Z,21.48
2018-06-17T05:08:17.968Z,21.4
2018-06-17T05:08:58.510Z,21.45
2018-06-17T05:09:39.086Z,21.39
2018-06-17T05:10:19.654Z,21.5
2018-06-17T05:11:00.213Z,21.5
2018-06-17T05:11:40.769Z,21.45
2018-06-17T05:12:21.312Z,21.51
2018-06-17T05:13:01.860Z,21.51
2018-06-17T05:13:42.415Z,21.55
2018-06-17T05:14:22.985Z,21.54
2018-06-17T05:15:03.550Z,21.48
2018-06-17T05:15:44.114Z,21.52
2018-06-17T05:16:24.743Z,21.46
2018-06-17T05:17:05.321Z,21.61
2018-06-17T05:17:45.871Z,21.66
2018-06-17T05:18:26.476Z,21.55
2018-06-17T05:19:07.021Z,21.64
2018-06-17T05:19:47.584Z,21.66
2018-06-17T05:20:28.152Z,21.62
2018-06-17T05:21:08.754Z,21.64
2018-06-17T05:21:49.390Z,21.66
2018-06-17T05:22:29.971Z,21.57
2018-06-17T05:23:10.588Z,21.51
2018-06-17T05:23:51.226Z,21.58
2018-06-17T05:24:31.789Z,21.57
2018-06-17T05:25:12.339Z,21.62
2018-06-17T05:25:52.932Z,21.72
2018-06-17T05:26:33.465Z,21.72
2018-06-17T05:27:14.023Z,21.66
2018-06-17T05:27:54.590Z,21.73
2018-06-17T05:28:35.152Z,21.79
2018-06-17T05:29:15.748Z,21.8
2018-06-17T05:29:56.344Z,21.83
2018-06-17T05:30:37.097Z,21.85
2018-06-17T05:31:17.833Z,21.92
2018-06-17T05:31:58.419Z,21.93
2018-06-17T05:32:38.948Z,21.99
2018-06-17T05:33:19.517Z,22.04
2018-06-17T05:34:00.094Z,22.18
2018-06-17T05:34:40.686Z,22.28
2018-06-17T05:35:21.292Z,22.33
2018-06-17T05:36:01.790Z,22.48
2018-06-17T05:36:42.418Z,22.48
2018-06-17T05:37:22.973Z,22.6
2018-06-17T05:38:03.560Z,22.62
2018-06-17T05:38:44.220Z,22.75
2018-06-17T05:39:24.763Z,22.9
2018-06-17T05:40:05.273Z,23
2018-06-17T05:40:46.315Z,23.17
2018-06-17T05:41:26.841Z,23.21
2018-06-17T05:42:07.492Z,23.25
2018-06-17T05:42:48.030Z,23.46
2018-06-17T05:43:29.013Z,23.46
2018-06-17T05:44:13.339Z,23.59
2018-06-17T05:44:54.825Z,23.59
2018-06-17T05:45:35.478Z,23.69
2018-06-17T05:46:16.064Z,23.83
2018-06-17T05:46:56.615Z,23.91
2018-06-17T05:47:37.233Z,23.98
2018-06-17T05:48:17.724Z,24.11
2018-06-17T05:48:58.309Z,24.08
2018-06-17T05:49:38.968Z,24.16
2018-06-17T05:50:19.618Z,24.18
2018-06-17T05:51:00.185Z,24.32
2018-06-17T05:51:40.755Z,24.32
2018-06-17T05:52:21.348Z,24.3
2018-06-17T05:53:01.931Z,24.47
2018-06-17T05:53:42.467Z,24.5
2018-06-17T05:54:23.029Z,24.61
2018-06-17T05:55:03.665Z,24.69
2018-06-17T05:55:44.439Z,24.74
2018-06-17T05:56:24.800Z,24.76
2018-06-17T05:57:05.383Z,24.88
2018-06-17T05:57:46.264Z,25.01
2018-06-17T05:58:29.474Z,25.03
2018-06-17T05:59:10.509Z,24.99
2018-06-17T05:59:51.540Z,25.11
2018-06-17T06:00:32.455Z,25.13
2018-06-17T06:01:13.487Z,25.18
2018-06-17T06:01:54.138Z,25.26
2018-06-17T06:02:34.769Z,25.28
2018-06-17T06:03:15.361Z,25.29
2018-06-17T06:03:55.948Z,25.38
2018-06-17T06:04:36.483Z,25.36
2018-06-17T06:05:17.036Z,25.5
2018-06-17T06:05:57.715Z,25.55
2018-06-17T06:06:38.694Z,25.63
2018-06-17T06:07:19.725Z,25.68
2018-06-17T06:08:00.291Z,25.69
2018-06-17T06:08:40.970Z,25.65
2018-06-17T06:09:21.758Z,25.84
2018-06-17T06:10:02.537Z,25.83
2018-06-17T06:10:43.088Z,25.93
2018-06-17T06:11:23.706Z,25.93
2018-06-17T06:12:04.298Z,25.87
2018-06-17T06:12:44.845Z,25.87
2018-06-17T06:13:25.403Z,26.05
2018-06-17T06:14:06.009Z,26.1
2018-06-17T06:14:46.600Z,26.16
2018-06-17T06:15:27.295Z,26.13
2018-06-17T06:16:08.143Z,26.19
2018-06-17T06:16:48.712Z,26.19
2018-06-17T06:17:29.541Z,26.09
2018-06-17T06:18:10.553Z,26.18
2018-06-17T06:18:51.496Z,26.18
2018-06-17T06:19:32.385Z,26.25
2018-06-17T06:20:13.124Z,26.16
2018-06-17T06:20:53.674Z,26.19
2018-06-17T06:21:34.230Z,26.23
2018-06-17T06:22:14.961Z,26.15
2018-06-17T06:22:56.708Z,26.1
2018-06-17T06:23:38.157Z,26.13
2018-06-17T06:24:18.831Z,26.19
2018-06-17T06:24:59.471Z,26.25
2018-06-17T06:25:40.142Z,26.25
2018-06-17T06:26:21.012Z,26.47
2018-06-17T06:27:01.575Z,26.47
2018-06-17T06:27:42.513Z,26.51
2018-06-17T06:28:23.200Z,26.56
2018-06-17T06:29:03.868Z,26.7
2018-06-17T06:29:44.671Z,26.7
2018-06-17T06:30:25.606Z,26.78
2018-06-17T06:31:06.313Z,26.77
2018-06-17T06:31:47.213Z,26.93
2018-06-17T06:32:28.076Z,26.93
2018-06-17T06:33:09.430Z,27.05
2018-06-17T06:33:50.166Z,27.05
2018-06-17T06:34:31.164Z,27.15
2018-06-17T06:35:11.958Z,27.17
2018-06-17T06:35:52.767Z,27.22
2018-06-17T06:36:34.220Z,27.29
2018-06-17T06:37:14.756Z,27.27
2018-06-17T06:37:55.298Z,27.35
2018-06-17T06:38:36.205Z,27.37
2018-06-17T06:39:17.356Z,27.35
2018-06-17T06:39:58.120Z,27.33
2018-06-17T06:40:38.768Z,27.36
2018-06-17T06:41:19.512Z,27.45
2018-06-17T06:42:00.225Z,27.49
2018-06-17T06:42:41.078Z,27.48
2018-06-17T06:43:22.074Z,27.49
2018-06-17T06:44:02.723Z,27.51
2018-06-17T06:44:43.684Z,27.49
2018-06-17T06:45:24.295Z,27.52
2018-06-17T06:46:05.037Z,27.51
2018-06-17T06:46:45.923Z,27.51
2018-06-17T06:47:26.958Z,27.52
2018-06-17T06:48:07.611Z,27.55
2018-06-17T06:48:48.220Z,27.55
2018-06-17T06:49:28.832Z,27.7
2018-06-17T06:50:09.662Z,27.71
2018-06-17T06:50:50.704Z,27.71
2018-06-17T06:51:31.447Z,27.77
2018-06-17T06:52:12.592Z,27.87
2018-06-17T06:52:53.646Z,27.82
2018-06-17T06:53:34.628Z,27.8
2018-06-17T06:54:15.471Z,27.71
2018-06-17T06:54:56.214Z,27.73
2018-06-17T06:55:36.784Z,27.74
2018-06-17T06:56:17.379Z,27.68
2018-06-17T06:56:57.933Z,27.71
2018-06-17T06:57:38.571Z,27.8
2018-06-17T06:58:19.166Z,27.85
2018-06-17T06:58:59.744Z,27.95
2018-06-17T06:59:40.341Z,27.89
2018-06-17T07:00:20.947Z,28
2018-06-17T07:01:02.056Z,27.98
2018-06-17T07:01:42.881Z,28.04
2018-06-17T07:02:23.598Z,28.04
2018-06-17T07:03:04.189Z,27.98
2018-06-17T07:03:44.812Z,28
2018-06-17T07:04:25.416Z,27.93
2018-06-17T07:05:06.017Z,27.85
2018-06-17T07:05:46.601Z,27.77
2018-06-17T07:06:27.180Z,27.68
2018-06-17T07:07:07.744Z,27.64
2018-06-17T07:07:48.665Z,27.63
2018-06-17T07:08:29.241Z,27.64
2018-06-17T07:09:09.776Z,27.71
2018-06-17T07:09:50.537Z,27.7
2018-06-17T07:10:31.168Z,27.71
2018-06-17T07:11:11.776Z,27.78
2018-06-17T07:11:52.520Z,27.8
2018-06-17T07:12:33.152Z,27.77
2018-06-17T07:13:13.765Z,27.82
2018-06-17T07:13:54.459Z,27.96
2018-06-17T07:14:35.136Z,27.96
2018-06-17T07:15:15.720Z,28.04
2018-06-17T07:15:56.355Z,27.98
2018-06-17T07:16:36.904Z,27.95
2018-06-17T07:17:17.486Z,28.05
2018-06-17T07:17:58.099Z,28.04
2018-06-17T07:18:38.767Z,28.14
2018-06-17T07:19:19.324Z,28.17
2018-06-17T07:19:59.895Z,28.19
2018-06-17T07:20:40.488Z,28.25
2018-06-17T07:21:21.062Z,28.3
2018-06-17T07:22:01.628Z,28.3
2018-06-17T07:22:42.332Z,28.27
2018-06-17T07:23:23.108Z,28.35
2018-06-17T07:24:04.370Z,28.45
2018-06-17T07:24:45.006Z,28.38
2018-06-17T07:25:25.721Z,28.47
2018-06-17T07:26:06.305Z,28.49
2018-06-17T07:26:46.843Z,28.54
2018-06-17T07:27:27.426Z,28.59
2018-06-17T07:28:08.018Z,28.56
2018-06-17T07:28:48.567Z,28.56
2018-06-17T07:29:29.121Z,28.62
2018-06-17T07:30:09.676Z,28.57
2018-06-17T07:30:50.237Z,28.57
2018-06-17T07:31:30.811Z,28.64
2018-06-17T07:32:11.546Z,28.66
2018-06-17T07:32:52.126Z,28.62
2018-06-17T07:33:32.726Z,28.67
2018-06-17T07:34:13.333Z,28.67
2018-06-17T07:34:53.878Z,28.66
2018-06-17T07:35:34.444Z,28.69
2018-06-17T07:36:15.033Z,28.75
2018-06-17T07:36:55.619Z,28.75
2018-06-17T07:37:36.195Z,28.64
2018-06-17T07:38:17.420Z,28.67
2018-06-17T07:38:58.420Z,28.64
2018-06-17T07:39:39.053Z,28.64
2018-06-17T07:40:20.058Z,28.56
2018-06-17T07:41:01.092Z,28.59
2018-06-17T07:41:42.146Z,28.6
2018-06-17T07:42:22.911Z,28.7
2018-06-17T07:43:03.884Z,28.69
2018-06-17T07:43:44.846Z,28.57
2018-06-17T07:44:25.898Z,28.48
2018-06-17T07:45:07.479Z,28.26
2018-06-17T07:45:48.516Z,28.2
2018-06-17T07:46:29.490Z,28
2018-06-17T07:47:10.672Z,27.93
2018-06-17T07:47:52.803Z,27.77
2018-06-17T07:48:34.026Z,27.7
2018-06-17T07:49:15.466Z,27.55
2018-06-17T07:49:56.470Z,27.4
2018-06-17T07:50:37.260Z,27.49
2018-06-17T07:51:18.337Z,27.39
2018-06-17T07:51:59.127Z,27.37
2018-06-17T07:52:40.022Z,27.42
2018-06-17T07:53:21.099Z,27.37
2018-06-17T07:54:01.730Z,27.32
2018-06-17T07:54:42.790Z,27.36
2018-06-17T07:55:23.766Z,27.42
2018-06-17T07:56:04.999Z,27.42
2018-06-17T07:56:46.518Z,27.45
2018-06-17T07:57:27.639Z,27.47
2018-06-17T07:58:08.965Z,27.45
2018-06-17T07:58:49.871Z,27.39
2018-06-17T07:59:30.502Z,27.44
2018-06-17T08:00:11.653Z,27.36
2018-06-17T08:00:52.681Z,27.35
2018-06-17T08:01:33.678Z,27.47
2018-06-17T08:02:14.644Z,27.32
2018-06-17T08:02:56.961Z,27.45
2018-06-17T08:03:37.450Z,27.47
2018-06-17T08:04:18.296Z,27.52
2018-06-17T08:04:59.642Z,27.55
2018-06-17T08:05:40.510Z,27.67
2018-06-17T08:06:21.053Z,27.74
2018-06-17T08:07:01.961Z,27.78
2018-06-17T08:07:42.682Z,27.85
2018-06-17T08:08:24.063Z,27.89
2018-06-17T08:09:04.770Z,27.85
2018-06-17T08:09:46.150Z,27.86
2018-06-17T08:10:26.978Z,27.89
2018-06-17T08:11:07.925Z,27.96
2018-06-17T08:11:49.757Z,27.93
2018-06-17T08:12:30.968Z,27.98
2018-06-17T08:13:12.624Z,28.02
2018-06-17T08:13:53.176Z,28.05
2018-06-17T08:14:34.243Z,28.08
2018-06-17T08:15:14.957Z,28.15
2018-06-17T08:15:56.303Z,28.12
2018-06-17T08:16:37.103Z,28.23
2018-06-17T08:17:17.848Z,28.3
2018-06-17T08:17:58.639Z,28.23
2018-06-17T08:18:39.459Z,28.25
2018-06-17T08:19:20.355Z,28.08
2018-06-17T08:20:01.222Z,28.19
2018-06-17T08:20:42.259Z,28.11
2018-06-17T08:21:22.952Z,28.14
2018-06-17T08:22:03.535Z,28.27
2018-06-17T08:22:44.386Z,28.25
2018-06-17T08:23:25.091Z,28.25
2018-06-17T08:24:06.040Z,28.25
2018-06-17T08:24:47.070Z,28.37
2018-06-17T08:25:27.768Z,28.39
2018-06-17T08:26:08.500Z,28.37
2018-06-17T08:26:49.152Z,28.27
2018-06-17T08:27:30.138Z,28.22
2018-06-17T08:28:10.704Z,28.22
2018-06-17T08:28:51.691Z,28.27
2018-06-17T08:29:32.662Z,28.14
2018-06-17T08:30:13.707Z,28.14
2018-06-17T08:30:54.484Z,28.1
2018-06-17T08:31:35.848Z,28.17
2018-06-17T08:32:16.331Z,28.11
2018-06-17T08:32:57.321Z,28.17
2018-06-17T08:33:38.100Z,28.2
2018-06-17T08:34:19.237Z,28.17
2018-06-17T08:35:00.049Z,28.11
2018-06-17T08:35:40.837Z,28.04
2018-06-17T08:36:21.710Z,28
2018-06-17T08:37:02.926Z,27.95
2018-06-17T08:37:43.737Z,27.82
2018-06-17T08:38:24.446Z,27.51
2018-06-17T08:39:05.238Z,27.54
2018-06-17T08:39:46.335Z,27.45
2018-06-17T08:40:26.952Z,27.47
2018-06-17T08:41:07.674Z,27.39
2018-06-17T08:41:48.708Z,27.3
2018-06-17T08:42:29.346Z,27.15
2018-06-17T08:43:10.499Z,27.07
2018-06-17T08:43:51.388Z,27.02
2018-06-17T08:44:32.210Z,26.96
2018-06-17T08:45:12.944Z,26.92
2018-06-17T08:45:53.783Z,26.99
2018-06-17T08:46:34.508Z,26.96
2018-06-17T08:47:15.255Z,27
2018-06-17T08:47:56.233Z,27.07